Farnham, Canada
Current Conditions -  °F | °C
As of 3:35 AM on Saturday 29 Nov 2014 (Local Time) from KFSO Reporting Station
Overcast Overcast  
Wind Chill: 17°   Ceiling: 3800
Heat Index: 17°   Visibility: 10mi
Dew Point: 14°   Wind: 0mph
Humidity: 90%   Direction: NA
Pressure: 30.22"   Gusts: NA
Location:  45.28°N, 72.97°W
Report Text: KFSO 290835Z AUTO 00000KT 10SM OVC038 M08/M10 A3022 RMK AO2 T10851099
Loading
Personal Weather Stations






























Interactive Weather Map New forecast layout! Learn more

10-Day Weather Forecast

Advertisements
Track Severe Weather on mobile